Terminal Aerodrome Forecast
Issued by NWS

Home | Current Version | Previous Version | Graphics & Text | Print | Product List | Glossary On
Versions: 1 2 3 4 5 6 7 8 9 10 11 12 13 14 15 16 17
000
FTUS43 KMPX 170500
TAFRWF
TAF
KRWF 170540Z 1706/1806 28013G20KT P6SM SCT030 BKN040
     FM170800 30018G27KT P6SM SCT020 OVC030
     FM171200 31022G30KT P6SM OVC020
     FM172200 32016G25KT P6SM SCT025 OVC050
     FM180200 32012KT P6SM OVC040=

USA.gov is the U.S. government's official web portal to all federal, state and local government web resources and services.